Time;durP1;ratioP1;P1;durP2;ratioP2;P2;SDS_P1;SDS_P2;PMS_P1;PMS_P2;Temp;Humidity;BMP_temperature;BMP_pressure;BME280_temperature;BME280_humidity;BME280_pressure;Samples;Min_cycle;Max_cycle;Signal;HPM_P1;HPM_P2
2021/06/25 00:00:37;;;;;;;34.55;21.95;;;;;;;17.18;65.55;101638.66;5115349;27;20491;-64
2021/06/25 00:03:05;;;;;;;40.95;23.38;;;;;;;17.17;65.64;101633.47;5134872;27;20058;-63
2021/06/25 00:05:32;;;;;;;32.30;21.45;;;;;;;17.30;65.02;101633.75;5134883;27;20578;-63
2021/06/25 00:07:59;;;;;;;37.17;22.52;;;;;;;17.19;65.69;101626.94;5116600;27;20077;-63
2021/06/25 00:10:26;;;;;;;37.75;23.05;;;;;;;17.13;66.00;101627.63;5115573;27;20126;-63
2021/06/25 00:12:53;;;;;;;34.70;22.23;;;;;;;17.13;66.32;101629.47;5134035;27;20043;-63
2021/06/25 00:15:20;;;;;;;42.28;22.95;;;;;;;17.36;64.51;101630.34;5134727;27;20049;-63
2021/06/25 00:17:47;;;;;;;39.72;23.02;;;;;;;17.15;65.53;101630.97;5116702;27;20047;-63
2021/06/25 00:20:15;;;;;;;38.50;22.92;;;;;;;17.06;66.17;101634.69;5099936;27;20066;-63
2021/06/25 00:22:43;;;;;;;37.20;23.25;;;;;;;17.01;66.04;101629.88;5116206;27;20130;-63
2021/06/25 00:25:11;;;;;;;45.28;22.85;;;;;;;17.00;66.47;101633.56;5133920;27;20039;-63
2021/06/25 00:27:37;;;;;;;36.22;22.67;;;;;;;17.13;65.51;101626.78;5099192;27;20108;-63
2021/06/25 00:30:05;;;;;;;40.08;23.08;;;;;;;17.11;66.41;101624.28;5134402;27;20045;-63
2021/06/25 00:32:32;;;;;;;37.97;23.00;;;;;;;17.10;66.15;101633.34;5114710;27;20049;-63
2021/06/25 00:34:59;;;;;;;40.25;24.58;;;;;;;17.07;66.50;101620.28;5116002;27;20035;-63
2021/06/25 00:37:26;;;;;;;37.95;22.05;;;;;;;16.99;66.59;101623.00;5134218;27;20039;-63
2021/06/25 00:39:53;;;;;;;41.70;23.75;;;;;;;16.97;67.71;101612.47;5133780;27;20528;-62
2021/06/25 00:42:20;;;;;;;41.85;23.85;;;;;;;16.95;67.39;101617.16;5134320;27;20482;-62
2021/06/25 00:44:47;;;;;;;39.25;23.73;;;;;;;16.98;66.80;101616.00;5134323;27;20477;-62
2021/06/25 00:47:14;;;;;;;40.13;24.45;;;;;;;16.76;67.17;101620.25;5098928;27;20506;-62
2021/06/25 00:49:41;;;;;;;44.10;24.77;;;;;;;16.85;66.50;101625.41;5115767;27;20073;-62
2021/06/25 00:52:13;;;;;;;46.42;25.95;;;;;;;16.84;67.07;101613.00;5115204;27;20099;-62
2021/06/25 00:54:40;;;;;;;48.58;25.50;;;;;;;16.76;66.48;101618.38;5133747;27;20495;-62
2021/06/25 00:57:07;;;;;;;44.88;25.35;;;;;;;16.67;66.91;101614.06;5095339;28;20101;-62
2021/06/25 00:59:33;;;;;;;38.03;25.63;;;;;;;16.74;66.78;101612.38;5095341;28;20427;-62
2021/06/25 01:02:00;;;;;;;40.92;26.13;;;;;;;16.71;66.73;101615.38;5111565;28;20067;-62
2021/06/25 01:04:28;;;;;;;50.22;27.08;;;;;;;16.73;66.85;101615.22;5095530;28;20047;-62
2021/06/25 01:06:55;;;;;;;44.55;25.67;;;;;;;16.65;67.48;101616.09;5131151;27;20055;-62
2021/06/25 01:09:22;;;;;;;43.80;26.55;;;;;;;16.53;68.00;101609.44;5132509;27;20578;-62
2021/06/25 01:11:49;;;;;;;48.28;26.40;;;;;;;16.47;68.40;101613.63;5112708;27;20563;-62
2021/06/25 01:14:19;;;;;;;46.17;27.30;;;;;;;16.41;68.33;101608.94;5095075;28;20089;-62
2021/06/25 01:16:46;;;;;;;40.80;25.95;;;;;;;16.41;69.15;101607.13;5113008;28;20044;-62
2021/06/25 01:19:14;;;;;;;46.65;27.15;;;;;;;16.40;68.79;101605.44;5094567;28;20047;-63
2021/06/25 01:21:43;;;;;;;47.33;26.20;;;;;;;16.34;69.25;101610.66;5094989;28;20537;-62
2021/06/25 01:24:10;;;;;;;45.30;27.67;;;;;;;16.27;69.69;101616.69;5110895;28;20136;-62
2021/06/25 01:26:37;;;;;;;45.78;26.42;;;;;;;16.19;70.33;101618.53;5115585;27;20055;-62
2021/06/25 01:29:04;;;;;;;42.25;26.67;;;;;;;16.19;69.86;101610.50;5133267;27;20449;-62
2021/06/25 01:31:31;;;;;;;48.78;27.05;;;;;;;16.04;70.44;101611.19;5133491;28;20417;-62
2021/06/25 01:33:58;;;;;;;44.15;27.80;;;;;;;16.01;70.96;101616.91;5114820;28;20335;-62
2021/06/25 01:36:25;;;;;;;48.72;27.75;;;;;;;16.05;70.88;101617.41;5133284;28;20126;-62
2021/06/25 01:38:52;;;;;;;51.85;29.08;;;;;;;15.95;71.25;101614.88;5133257;28;20035;-62
2021/06/25 01:41:19;;;;;;;47.80;29.00;;;;;;;15.88;71.24;101604.03;5114970;28;20027;-64
2021/06/25 01:43:48;;;;;;;50.85;28.67;;;;;;;15.90;71.90;101610.03;5098473;28;20043;-64
2021/06/25 01:46:15;;;;;;;44.42;27.85;;;;;;;15.95;71.20;101611.38;5131353;28;20124;-63
2021/06/25 01:48:42;;;;;;;42.60;26.65;;;;;;;16.02;70.50;101615.06;5133366;28;20130;-63
2021/06/25 01:51:09;;;;;;;45.25;26.38;;;;;;;16.08;69.49;101615.22;5098608;28;20043;-64
2021/06/25 01:53:36;;;;;;;47.35;27.00;;;;;;;15.97;70.08;101604.88;5114994;28;20035;-64
2021/06/25 01:56:03;;;;;;;44.60;26.30;;;;;;;15.98;69.60;101608.38;5132757;28;20045;-63
2021/06/25 01:58:31;;;;;;;43.45;25.60;;;;;;;15.87;69.61;101607.69;5133076;28;20063;-63
2021/06/25 02:01:17;;;;;;;40.45;25.70;;;;;;;15.92;68.96;101589.31;5114577;28;20122;-64
2021/06/25 02:03:46;;;;;;;42.08;25.55;;;;;;;15.74;69.61;101596.69;5133059;28;20047;-64
2021/06/25 02:06:14;;;;;;;41.72;26.38;;;;;;;15.69;70.06;101597.13;5114736;28;20489;-64
2021/06/25 02:08:42;;;;;;;47.55;27.38;;;;;;;15.80;69.00;101589.81;5133218;28;20043;-64
2021/06/25 02:11:11;;;;;;;46.03;26.33;;;;;;;15.82;69.72;101585.97;5132853;28;20056;-64
2021/06/25 02:13:38;;;;;;;46.00;26.33;;;;;;;15.72;69.76;101590.63;5133410;28;20404;-63
2021/06/25 02:16:05;;;;;;;43.00;26.50;;;;;;;15.72;69.06;101587.97;5114962;28;20050;-64
2021/06/25 02:18:32;;;;;;;48.42;27.15;;;;;;;15.65;69.83;101587.78;5132933;28;20063;-64
2021/06/25 02:20:59;;;;;;;42.85;26.48;;;;;;;15.60;70.10;101592.78;5131316;28;20510;-64
2021/06/25 02:23:26;;;;;;;44.50;27.15;;;;;;;15.66;69.06;101585.94;5132922;28;20495;-64
2021/06/25 02:25:53;;;;;;;48.13;26.10;;;;;;;15.81;68.32;101586.97;5114372;28;20062;-64
2021/06/25 02:28:20;;;;;;;41.10;25.20;;;;;;;15.66;69.19;101591.28;5114600;28;20103;-64
2021/06/25 02:30:48;;;;;;;42.30;26.00;;;;;;;15.53;69.97;101594.44;5133006;28;20107;-63
2021/06/25 02:33:15;;;;;;;41.97;25.55;;;;;;;15.60;69.08;101594.63;5133095;28;20043;-64
2021/06/25 02:35:42;;;;;;;40.40;25.73;;;;;;;15.60;68.68;101584.75;5115099;27;20051;-64
2021/06/25 02:38:09;;;;;;;42.55;26.08;;;;;;;15.58;69.08;101593.97;5118425;27;20043;-63
2021/06/25 02:40:36;;;;;;;39.72;25.58;;;;;;;15.43;70.35;101591.13;5117711;27;20130;-64
2021/06/25 02:43:04;;;;;;;43.72;27.27;;;;;;;15.36;71.22;101578.38;5136775;27;20059;-64
2021/06/25 02:45:30;;;;;;;42.33;26.08;;;;;;;15.29;70.99;101590.75;5118220;27;20096;-64
2021/06/25 02:47:57;;;;;;;41.28;25.98;;;;;;;15.28;71.17;101583.75;5134785;27;20126;-63
2021/06/25 02:50:24;;;;;;;42.72;25.73;;;;;;;15.18;71.47;101583.03;5136738;27;20475;-64
2021/06/25 02:52:51;;;;;;;46.78;26.67;;;;;;;15.12;71.62;101583.72;5117802;27;20039;-64
2021/06/25 02:55:20;;;;;;;45.10;25.75;;;;;;;14.97;72.41;101592.34;5136019;27;20043;-64
2021/06/25 02:57:46;;;;;;;42.72;26.33;;;;;;;14.88;72.74;101589.78;5117969;27;20039;-64
2021/06/25 03:00:16;;;;;;;44.53;27.30;;;;;;;14.89;72.76;101586.13;5100824;27;20063;-63
2021/06/25 03:02:43;;;;;;;41.85;26.58;;;;;;;14.93;72.58;101580.28;5101385;27;20043;-64
2021/06/25 03:05:12;;;;;;;45.80;27.85;;;;;;;14.89;73.13;101580.78;5135613;27;20039;-63
2021/06/25 03:07:40;;;;;;;46.50;27.15;;;;;;;14.95;72.73;101582.81;5135783;27;20549;-63
2021/06/25 03:10:08;;;;;;;46.83;28.13;;;;;;;14.84;73.41;101580.44;5135800;27;20394;-63
2021/06/25 03:12:35;;;;;;;43.30;27.20;;;;;;;14.77;74.07;101583.75;5136096;27;20092;-63
2021/06/25 03:15:05;;;;;;;44.67;26.17;;;;;;;14.71;74.35;101576.38;5136008;27;20039;-63
2021/06/25 03:17:33;;;;;;;51.78;28.17;;;;;;;14.65;74.59;101579.69;5117856;27;20126;-63
2021/06/25 03:20:02;;;;;;;55.13;28.38;;;;;;;14.67;74.89;101577.72;5099966;27;20122;-63
2021/06/25 03:22:29;;;;;;;46.67;27.70;;;;;;;14.61;74.41;101593.53;5116123;27;20035;-63
2021/06/25 03:24:56;;;;;;;48.50;27.90;;;;;;;14.56;74.39;101591.31;5100554;27;20139;-63
2021/06/25 03:27:23;;;;;;;45.60;26.92;;;;;;;14.52;74.37;101581.97;5135524;27;20035;-63
2021/06/25 03:29:49;;;;;;;44.78;28.38;;;;;;;14.46;74.75;101578.09;5100653;27;20134;-63
2021/06/25 03:32:16;;;;;;;45.30;28.00;;;;;;;14.50;75.07;101575.94;5135671;27;20042;-63
2021/06/25 03:34:43;;;;;;;46.90;28.60;;;;;;;14.51;74.80;101586.44;5135186;27;20039;-63
2021/06/25 03:37:10;;;;;;;46.25;29.90;;;;;;;14.49;75.02;101588.44;5135500;27;20487;-63
2021/06/25 03:39:38;;;;;;;48.75;29.83;;;;;;;14.64;75.07;101579.84;5134964;27;20507;-64
2021/06/25 03:42:05;;;;;;;48.80;28.90;;;;;;;14.56;75.49;101584.13;5100332;27;20039;-63
2021/06/25 03:44:32;;;;;;;47.38;29.08;;;;;;;14.59;75.10;101591.03;5135609;27;20039;-64
2021/06/25 03:47:00;;;;;;;47.80;27.75;;;;;;;14.48;75.03;101585.91;5100373;27;20483;-64
2021/06/25 03:49:27;;;;;;;50.70;29.60;;;;;;;14.56;75.39;101588.66;5133415;27;20043;-63
2021/06/25 03:51:53;;;;;;;48.17;28.88;;;;;;;14.51;75.49;101593.63;5117007;27;20039;-64
2021/06/25 03:54:20;;;;;;;55.85;34.50;;;;;;;14.53;75.54;101592.44;5116920;27;20039;-64
2021/06/25 03:56:47;;;;;;;54.92;33.72;;;;;;;14.62;74.99;101585.34;5134783;27;20576;-64
2021/06/25 03:59:14;;;;;;;60.50;33.50;;;;;;;14.63;75.39;101600.38;5135314;27;20046;-64
2021/06/25 04:01:42;;;;;;;59.95;35.42;;;;;;;14.60;76.07;101600.69;5099795;27;20061;-63
2021/06/25 04:04:09;;;;;;;54.85;32.80;;;;;;;14.59;75.64;101599.03;5134836;27;20579;-64
2021/06/25 04:06:36;;;;;;;54.17;30.15;;;;;;;14.60;75.38;101595.38;5116757;27;20146;-63
2021/06/25 04:09:04;;;;;;;49.53;29.90;;;;;;;14.64;75.27;101598.56;5134893;27;20039;-63
2021/06/25 04:11:31;;;;;;;47.85;30.15;;;;;;;14.62;75.18;101592.53;5134532;27;20035;-64
2021/06/25 04:13:58;;;;;;;47.80;29.88;;;;;;;14.62;75.74;101585.34;5134872;27;20046;-63
2021/06/25 04:16:25;;;;;;;53.80;29.90;;;;;;;14.61;75.91;101583.69;5134066;27;20039;-64
2021/06/25 04:18:52;;;;;;;45.90;29.10;;;;;;;14.59;76.00;101591.88;5116561;27;20065;-64
2021/06/25 04:21:21;;;;;;;46.22;28.95;;;;;;;14.58;75.52;101589.34;5132834;27;20054;-63
2021/06/25 04:23:48;;;;;;;47.83;28.58;;;;;;;14.62;75.61;101585.34;5134707;27;20043;-63
2021/06/25 04:26:15;;;;;;;43.30;28.70;;;;;;;14.64;75.81;101595.88;5134069;27;20418;-64
2021/06/25 04:28:42;;;;;;;47.45;28.67;;;;;;;14.63;75.76;101595.06;5115801;27;20097;-63
2021/06/25 04:31:09;;;;;;;49.20;28.58;;;;;;;14.61;75.58;101594.38;5115360;27;20045;-63
2021/06/25 04:33:36;;;;;;;46.13;28.83;;;;;;;14.56;76.24;101594.81;5134441;27;20088;-63
2021/06/25 04:36:03;;;;;;;47.55;28.15;;;;;;;14.52;75.99;101590.78;5116487;27;20042;-63
2021/06/25 04:38:30;;;;;;;46.50;27.83;;;;;;;14.52;76.17;101597.97;5134259;27;20058;-63
2021/06/25 04:40:57;;;;;;;47.47;28.40;;;;;;;14.52;76.14;101597.97;5115615;27;20035;-63
2021/06/25 04:43:24;;;;;;;51.10;29.02;;;;;;;14.54;75.42;101604.00;5115996;27;20065;-63
2021/06/25 04:45:51;;;;;;;46.30;28.10;;;;;;;14.56;75.46;101600.16;5133861;27;20039;-62
2021/06/25 04:48:18;;;;;;;43.38;27.35;;;;;;;14.56;75.98;101596.66;5132474;27;20197;-63
2021/06/25 04:50:45;;;;;;;49.65;29.23;;;;;;;14.65;74.55;101585.03;5133568;27;20062;-63
2021/06/25 04:53:13;;;;;;;47.80;28.80;;;;;;;14.63;75.17;101588.88;5133833;27;20054;-63
2021/06/25 04:55:41;;;;;;;47.10;28.25;;;;;;;14.68;74.61;101587.41;5115454;27;20039;-62
2021/06/25 04:58:10;;;;;;;47.67;28.98;;;;;;;14.67;75.13;101601.75;5133329;27;20051;-63
2021/06/25 05:00:38;;;;;;;50.90;29.35;;;;;;;14.78;73.89;101590.75;5115453;27;20051;-63
2021/06/25 05:03:06;;;;;;;46.45;27.92;;;;;;;14.76;74.24;101590.09;5115816;27;20035;-63
2021/06/25 05:05:34;;;;;;;49.65;29.73;;;;;;;14.75;74.22;101585.75;5133658;27;20123;-62
2021/06/25 05:08:01;;;;;;;55.30;29.17;;;;;;;14.93;73.70;101584.81;5133775;27;20096;-63
2021/06/25 05:10:28;;;;;;;53.60;28.77;;;;;;;14.95;73.39;101586.34;5133344;27;20066;-62
2021/06/25 05:12:55;;;;;;;55.65;30.10;;;;;;;14.87;73.47;101574.78;5115455;27;20051;-62
2021/06/25 05:15:22;;;;;;;55.15;30.80;;;;;;;14.84;74.23;101575.91;5080129;27;20081;-62
2021/06/25 05:17:50;;;;;;;52.80;30.40;;;;;;;15.02;73.02;101566.97;5133499;27;20054;-63
2021/06/25 05:20:38;;;;;;;53.83;29.60;;;;;;;15.07;72.45;101576.16;5104236;27;20035;-62
2021/06/25 05:23:05;;;;;;;53.60;30.17;;;;;;;14.89;73.08;101570.09;5133295;27;20042;-63
2021/06/25 05:25:32;;;;;;;56.03;30.48;;;;;;;14.98;73.81;101566.47;5133509;27;20051;-62
2021/06/25 05:27:59;;;;;;;47.08;27.98;;;;;;;15.14;72.21;101571.00;5132979;27;20055;-63
2021/06/25 05:30:26;;;;;;;56.47;30.33;;;;;;;15.11;72.05;101566.81;5115146;28;20453;-62
2021/06/25 05:32:54;;;;;;;52.47;30.40;;;;;;;15.23;71.29;101562.00;5115330;28;20039;-64
2021/06/25 05:35:20;;;;;;;60.97;31.92;;;;;;;15.33;70.75;101568.06;5133431;28;20050;-63
2021/06/25 05:37:47;;;;;;;64.30;32.03;;;;;;;15.33;70.75;101557.34;5133455;28;20082;-63
2021/06/25 05:40:14;;;;;;;55.40;31.80;;;;;;;15.34;71.28;101561.69;5113299;28;20415;-63
2021/06/25 05:42:41;;;;;;;54.22;32.33;;;;;;;15.48;70.04;101568.22;5114957;28;20114;-63
2021/06/25 05:45:09;;;;;;;55.05;32.45;;;;;;;15.51;70.07;101565.19;5133038;28;20046;-63
2021/06/25 05:47:35;;;;;;;65.18;34.53;;;;;;;15.49;70.29;101558.34;5114628;28;20039;-63
2021/06/25 05:50:03;;;;;;;61.60;34.40;;;;;;;15.55;69.47;101561.22;5132867;28;20043;-63
2021/06/25 05:52:29;;;;;;;67.50;35.38;;;;;;;15.60;69.19;101566.03;5132626;28;20043;-63
2021/06/25 05:54:56;;;;;;;60.92;34.92;;;;;;;15.70;68.93;101561.38;5097732;28;20534;-63
2021/06/25 05:57:23;;;;;;;63.10;36.50;;;;;;;15.68;70.28;101565.19;5097972;28;20055;-63
2021/06/25 05:59:51;;;;;;;57.35;35.67;;;;;;;15.85;68.31;101572.25;5114810;28;20118;-63
2021/06/25 06:02:18;;;;;;;58.25;35.38;;;;;;;15.84;68.33;101575.09;5133005;28;20046;-63
2021/06/25 06:04:45;;;;;;;72.82;36.65;;;;;;;15.97;67.87;101577.25;5131201;28;20043;-63
2021/06/25 06:07:13;;;;;;;63.13;34.33;;;;;;;15.87;67.76;101567.56;5114761;28;20043;-64
2021/06/25 06:09:39;;;;;;;57.33;33.25;;;;;;;16.03;66.60;101580.09;5115434;27;20055;-62
2021/06/25 06:12:07;;;;;;;53.58;30.70;;;;;;;16.09;65.33;101581.25;5130340;27;20044;-63
2021/06/25 06:14:33;;;;;;;55.30;30.05;;;;;;;16.01;66.03;101578.56;5116411;28;20067;-62
2021/06/25 06:17:00;;;;;;;51.63;30.27;;;;;;;16.00;67.24;101590.31;5116341;28;20123;-63
2021/06/25 06:19:37;;;;;;;48.20;29.20;;;;;;;16.02;66.42;101590.97;5098121;28;20054;-62
2021/06/25 06:33:20;;;;;;;45.25;26.05;;;;;;;16.23;65.37;101577.06;5115137;28;20050;-62
2021/06/25 06:35:46;;;;;;;46.92;27.48;;;;;;;16.36;64.00;101576.53;5097987;28;20031;-62
2021/06/25 06:38:13;;;;;;;45.83;28.52;;;;;;;16.34;65.37;101582.03;5114448;28;20482;-62
2021/06/25 06:40:40;;;;;;;43.13;24.63;;;;;;;16.51;61.51;101580.13;5115450;28;20093;-62
2021/06/25 06:43:07;;;;;;;41.63;24.30;;;;;;;16.49;61.75;101577.63;5116971;27;20038;-62
2021/06/25 06:45:35;;;;;;;39.88;22.85;;;;;;;16.49;61.35;101580.31;5097727;28;20050;-62
2021/06/25 06:48:03;;;;;;;38.90;22.52;;;;;;;16.50;61.04;101579.31;5089090;27;20403;-62
2021/06/25 06:50:29;;;;;;;38.38;20.13;;;;;;;16.59;59.51;101571.22;5136365;27;20043;-62
2021/06/25 06:52:56;;;;;;;40.15;20.08;;;;;;;16.58;58.29;101573.09;5136374;27;20039;-62
2021/06/25 06:55:25;;;;;;;37.03;20.10;;;;;;;16.65;57.43;101581.28;5117760;27;20042;-62
2021/06/25 06:57:52;;;;;;;34.72;18.80;;;;;;;16.48;59.10;101578.66;5100983;27;20122;-62
2021/06/25 07:00:19;;;;;;;40.15;20.75;;;;;;;16.65;59.21;101579.41;5117063;27;20105;-63
2021/06/25 07:02:48;;;;;;;33.13;19.83;;;;;;;16.89;59.19;101572.31;5135986;27;20042;-62
2021/06/25 07:05:16;;;;;;;36.15;20.17;;;;;;;16.91;58.28;101574.81;5095433;28;20036;-63
2021/06/25 07:07:43;;;;;;;36.88;19.45;;;;;;;16.90;57.31;101579.34;5109997;27;20452;-63
2021/06/25 07:10:11;;;;;;;40.03;19.85;;;;;;;16.97;56.54;101577.63;5116713;27;20073;-63
2021/06/25 07:12:39;;;;;;;35.83;18.63;;;;;;;16.87;57.52;101569.81;5135271;27;20096;-63
2021/06/25 07:15:06;;;;;;;30.90;19.27;;;;;;;16.81;56.99;101575.84;5099954;27;20483;-63
2021/06/25 07:17:33;;;;;;;34.10;19.63;;;;;;;17.01;58.15;101576.28;5135409;27;20551;-63
2021/06/25 07:20:00;;;;;;;41.67;20.60;;;;;;;16.98;57.73;101590.00;5117298;27;20096;-63
2021/06/25 07:22:27;;;;;;;37.22;20.48;;;;;;;17.06;58.42;101581.09;5116595;27;20042;-63
2021/06/25 07:24:54;;;;;;;37.55;19.63;;;;;;;17.13;57.49;101578.53;5113707;27;20039;-63
2021/06/25 07:27:21;;;;;;;37.53;20.63;;;;;;;17.22;57.46;101577.47;5101417;28;20085;-63
2021/06/25 07:29:48;;;;;;;36.67;21.85;;;;;;;17.35;57.40;101590.28;5058509;28;20051;-63
2021/06/25 07:32:16;;;;;;;41.65;22.77;;;;;;;17.30;57.17;101585.50;5073086;28;20151;-63
2021/06/25 07:34:43;;;;;;;38.78;22.33;;;;;;;17.46;57.42;101579.16;5091169;28;20511;-63
2021/06/25 07:37:10;;;;;;;38.50;20.85;;;;;;;17.62;56.98;101588.94;5079619;28;20590;-63
2021/06/25 07:39:37;;;;;;;35.72;19.75;;;;;;;17.76;55.78;101579.25;5092220;28;20032;-63
2021/06/25 07:42:05;;;;;;;32.92;17.42;;;;;;;17.89;54.10;101584.88;5074059;28;20074;-63
2021/06/25 07:44:32;;;;;;;34.80;17.13;;;;;;;17.76;54.03;101584.63;5081279;28;20047;-63
2021/06/25 07:47:00;;;;;;;31.88;16.60;;;;;;;17.89;54.64;101587.56;5093896;28;20400;-63
2021/06/25 07:49:27;;;;;;;31.02;18.15;;;;;;;17.89;54.42;101584.88;5075355;28;20131;-63
2021/06/25 07:51:54;;;;;;;33.30;17.33;;;;;;;17.85;55.07;101586.25;5093015;28;20044;-63
2021/06/25 07:54:21;;;;;;;29.08;17.52;;;;;;;17.99;54.62;101589.97;5076810;28;20045;-63
2021/06/25 07:56:48;;;;;;;36.00;18.17;;;;;;;17.91;54.05;101587.38;5074333;28;20060;-63
2021/06/25 07:59:15;;;;;;;32.03;19.15;;;;;;;17.86;55.09;101585.22;5075278;28;20048;-63
2021/06/25 08:01:42;;;;;;;31.85;19.08;;;;;;;17.88;55.36;101588.56;5090751;28;20446;-63
2021/06/25 08:04:09;;;;;;;48.20;19.88;;;;;;;18.08;54.86;101578.16;5091009;28;20075;-63
2021/06/25 08:06:36;;;;;;;33.50;18.65;;;;;;;18.09;55.73;101573.63;5092715;28;20527;-63
2021/06/25 08:09:05;;;;;;;34.80;18.60;;;;;;;18.18;55.96;101573.34;5069995;28;20048;-63
2021/06/25 08:11:31;;;;;;;30.35;18.10;;;;;;;18.29;55.40;101568.53;5079565;28;20047;-63
2021/06/25 08:13:59;;;;;;;35.90;19.10;;;;;;;18.17;55.98;101563.63;5090570;28;20532;-63
2021/06/25 08:16:26;;;;;;;32.40;20.30;;;;;;;18.26;55.21;101561.66;5075711;28;20040;-63
2021/06/25 08:19:01;;;;;;;34.05;19.35;;;;;;;18.45;55.97;101560.28;5092519;28;20508;-63
2021/06/25 08:21:29;;;;;;;34.83;19.23;;;;;;;18.61;54.37;101565.47;5059024;28;20057;-63
2021/06/25 08:23:57;;;;;;;31.05;18.90;;;;;;;18.61;55.92;101564.63;5092584;28;20068;-63
2021/06/25 08:26:24;;;;;;;36.17;19.85;;;;;;;18.65;54.78;101565.91;5091800;28;20075;-64
2021/06/25 08:28:52;;;;;;;36.28;19.73;;;;;;;18.64;53.07;101558.88;5100921;28;20048;-63
2021/06/25 08:31:19;;;;;;;35.60;18.65;;;;;;;18.60;54.45;101554.91;5110887;28;20509;-64
2021/06/25 08:33:46;;;;;;;34.95;17.55;;;;;;;18.69;54.55;101542.19;5111149;28;20036;-64
2021/06/25 08:36:14;;;;;;;32.90;18.15;;;;;;;18.80;53.20;101542.53;5107952;28;20043;-64
2021/06/25 08:38:41;;;;;;;35.88;19.23;;;;;;;19.06;53.01;101543.06;5092705;28;20035;-64
2021/06/25 08:41:08;;;;;;;30.70;19.67;;;;;;;19.02;52.26;101539.09;5105780;28;20093;-64
2021/06/25 08:43:35;;;;;;;34.03;17.75;;;;;;;19.16;52.16;101541.72;5109458;28;20127;-64
2021/06/25 08:46:03;;;;;;;30.60;16.98;;;;;;;19.29;52.24;101543.69;5095091;28;20097;-64
2021/06/25 08:48:32;;;;;;;38.00;17.42;;;;;;;19.44;51.16;101546.31;5106290;28;20063;-64
2021/06/25 08:51:00;;;;;;;33.25;16.95;;;;;;;19.55;51.13;101545.81;5109344;28;20092;-64
2021/06/25 08:53:27;;;;;;;28.30;16.58;;;;;;;19.34;51.10;101545.81;5093225;28;20036;-63
2021/06/25 08:55:54;;;;;;;22.48;15.38;;;;;;;19.49;51.86;101546.56;5105005;28;20044;-64
2021/06/25 08:58:22;;;;;;;32.40;16.65;;;;;;;19.77;50.41;101547.66;5091071;28;20040;-63
2021/06/25 09:00:51;;;;;;;25.63;15.80;;;;;;;19.78;49.31;101544.78;5097554;28;20067;-64
2021/06/25 09:03:21;;;;;;;28.40;15.55;;;;;;;19.69;49.24;101543.22;5097850;28;20519;-63
2021/06/25 09:05:48;;;;;;;27.58;16.02;;;;;;;19.71;48.72;101544.69;5107245;28;20561;-63
2021/06/25 09:08:27;;;;;;;28.38;15.40;;;;;;;19.76;49.85;101538.75;5102117;28;20075;-63
2021/06/25 09:10:57;;;;;;;28.77;15.25;;;;;;;19.87;49.15;101538.22;5089470;28;20437;-63
2021/06/25 09:13:39;;;;;;;26.88;15.88;;;;;;;19.63;48.47;101538.59;5107462;28;20070;-63
2021/06/25 09:16:27;;;;;;;25.98;15.00;;;;;;;19.80;48.94;101537.34;5080141;28;20408;-63
2021/06/25 09:19:00;;;;;;;30.98;15.20;;;;;;;19.95;47.80;101521.06;5105547;28;20539;-64
2021/06/25 09:21:31;;;;;;;28.85;14.18;;;;;;;20.01;48.27;101527.53;5097220;28;20044;-63
2021/06/25 09:24:22;;;;;;;27.60;15.15;;;;;;;20.10;47.77;101524.50;5109121;28;20115;-64
2021/06/25 09:26:57;;;;;;;29.55;16.23;;;;;;;20.02;46.35;101529.19;5110610;28;20131;-63
2021/06/25 09:29:28;;;;;;;27.25;15.30;;;;;;;19.96;46.87;101525.44;5112826;28;20484;-63
2021/06/25 09:32:01;;;;;;;27.35;15.32;;;;;;;20.01;46.45;101524.81;5111008;28;20040;-63
2021/06/25 09:34:47;;;;;;;25.63;14.13;;;;;;;20.36;46.61;101522.97;5112101;28;20058;-63
2021/06/25 09:37:17;;;;;;;23.30;14.70;;;;;;;20.38;45.63;101522.78;5095555;28;20062;-63
2021/06/25 09:39:59;;;;;;;26.13;14.30;;;;;;;20.35;45.60;101531.25;5129663;28;20437;-64
2021/06/25 09:42:28;;;;;;;23.80;14.35;;;;;;;20.35;45.96;101521.28;5125420;28;20074;-63
2021/06/25 09:44:59;;;;;;;24.33;13.10;;;;;;;20.38;45.54;101528.16;5126608;27;20039;-63
2021/06/25 09:47:29;;;;;;;27.52;12.38;;;;;;;20.46;46.19;101514.50;5127088;27;20038;-63
2021/06/25 09:50:17;;;;;;;24.30;13.45;;;;;;;20.63;45.65;101513.16;5112870;28;20671;-63
2021/06/25 09:52:54;;;;;;;22.67;13.10;;;;;;;20.68;45.29;101510.69;5132739;27;20039;-64
2021/06/25 09:55:26;;;;;;;20.92;12.70;;;;;;;20.66;45.48;101517.31;5101239;27;20073;-63
2021/06/25 09:58:21;;;;;;;24.45;13.30;;;;;;;20.33;44.35;101508.00;5115762;27;20070;-63
2021/06/25 10:01:25;;;;;;;24.48;12.85;;;;;;;20.33;42.88;101515.28;5126803;27;20125;-63
2021/06/25 10:03:57;;;;;;;21.50;11.70;;;;;;;20.42;46.03;101510.56;5106913;27;20510;-64
2021/06/25 10:06:28;;;;;;;25.42;12.68;;;;;;;20.60;44.73;101507.31;5132525;27;20039;-63
2021/06/25 10:08:55;;;;;;;24.63;13.77;;;;;;;20.44;43.76;101511.19;5118303;27;20445;-64
2021/06/25 10:11:24;;;;;;;24.83;13.50;;;;;;;20.30;44.11;101515.66;5093382;28;20044;-63
2021/06/25 10:13:54;;;;;;;23.00;13.00;;;;;;;20.17;44.63;101511.03;5110929;27;20499;-63
2021/06/25 10:16:23;;;;;;;24.13;15.10;;;;;;;20.67;43.00;101510.91;5084429;28;20043;-63
2021/06/25 10:18:52;;;;;;;24.70;12.98;;;;;;;20.85;42.39;101502.25;5080616;28;20035;-63
2021/06/25 10:21:24;;;;;;;22.38;13.82;;;;;;;21.03;42.06;101504.34;5106436;27;20039;-63
2021/06/25 10:23:59;;;;;;;24.70;13.13;;;;;;;21.14;42.00;101506.44;5082191;28;20067;-63
2021/06/25 10:26:27;;;;;;;21.75;13.32;;;;;;;21.15;41.42;101501.88;5121630;27;20066;-64
2021/06/25 10:28:55;;;;;;;24.92;13.10;;;;;;;21.33;42.89;101503.97;5134684;27;20515;-63
2021/06/25 10:31:25;;;;;;;23.65;13.18;;;;;;;21.77;40.86;101505.22;5113493;27;20039;-64
2021/06/25 10:33:54;;;;;;;25.55;12.80;;;;;;;21.89;40.03;101497.31;5115631;27;20040;-64
2021/06/25 10:36:32;;;;;;;20.80;12.85;;;;;;;22.18;39.89;101493.28;5129921;27;20543;-63
2021/06/25 10:39:15;;;;;;;24.48;13.68;;;;;;;22.35;37.64;101490.97;5115476;27;20043;-64
2021/06/25 10:41:55;;;;;;;22.35;13.00;;;;;;;22.39;38.44;101487.63;5126487;27;20070;-63
2021/06/25 10:47:28;;;;;;;21.75;12.57;;;;;;;22.45;39.91;101494.03;5125051;27;20120;-63
2021/06/25 10:52:40;;;;;;;22.10;12.80;;;;;;;22.56;38.81;101490.66;5129238;27;20393;-63
2021/06/25 10:55:11;;;;;;;24.52;12.38;;;;;;;22.85;38.82;101485.72;5130312;27;20043;-62
2021/06/25 11:00:52;;;;;;;18.88;12.70;;;;;;;22.90;38.47;101488.59;5128067;27;20348;-63
2021/06/25 11:03:41;;;;;;;20.73;12.40;;;;;;;22.93;39.43;101490.84;5111179;28;20050;-63
2021/06/25 11:06:30;;;;;;;22.52;13.27;;;;;;;22.79;38.28;101487.44;5123161;28;20373;-63
2021/06/25 11:09:05;;;;;;;25.77;14.13;;;;;;;22.31;39.16;101495.13;5102360;28;20386;-63
2021/06/25 11:11:32;;;;;;;19.77;12.85;;;;;;;22.32;40.31;101494.94;5118316;27;20104;-63
2021/06/25 11:14:01;;;;;;;23.88;13.27;;;;;;;22.46;40.85;101494.88;5110697;28;20469;-63
2021/06/25 11:16:28;;;;;;;71.85;46.50;;;;;;;22.36;40.07;101487.22;5100795;28;20045;-63
2021/06/25 11:18:55;;;;;;;23.25;13.57;;;;;;;22.33;38.81;101498.44;5092170;28;20043;-62
2021/06/25 11:21:41;;;;;;;25.58;13.75;;;;;;;22.37;39.09;101491.56;5075512;28;20039;-65
2021/06/25 11:24:08;;;;;;;24.40;13.48;;;;;;;22.15;38.83;101491.81;5108106;28;20523;-64
2021/06/25 11:26:53;;;;;;;23.92;13.02;;;;;;;22.13;39.87;101490.38;5088349;28;20458;-65
2021/06/25 11:29:19;;;;;;;23.98;13.48;;;;;;;21.98;40.11;101496.88;5084567;28;20058;-65
2021/06/25 11:32:09;;;;;;;26.40;13.52;;;;;;;21.70;38.82;101496.28;5102062;28;20050;-65
2021/06/25 11:34:36;;;;;;;21.67;11.45;;;;;;;21.93;41.22;101496.66;5120340;28;20042;-66
2021/06/25 11:37:03;;;;;;;22.20;13.10;;;;;;;21.74;39.10;101500.22;5062078;28;20051;-65